• Join FlightAware (Why Join?)
  • Login
  • US Flag 
11:59AM EDT


 

Airport Tracker/Info


-or-


 

Live Flight TrackerFlight Track Log ✈ N804JJ ✈ 17-Sep-2013 ✈ KRYY - KISM

Flight Track Log - Related Links

Times and Time Zones

All times are in EDT time to prevent confusion due to time zone crossing. See the N804JJ flight status page for this flight to view local times or setup timezone preferences in your user account.

Time Position Orientation Groundspeed Altitude Reporting Facility
EDT Latitude Longitude Course Direction KTS MPH feet Rate Location/Type
07:07PM 33.5183 -84.3950 167° South 378 435 17,700  Level Atlanta Center
07:08PM 33.4774 -84.2823 154° Southeast  Level Estimated
07:08PM 33.4078 -84.3500 161° South 417 480 19,500  Level Atlanta Center
07:09PM 33.3899 -84.2313 154° Southeast  Level Estimated
07:09PM 33.2889 -84.2997 161° South 428 493 21,400  Level Atlanta Center
07:10PM 33.3025 -84.1805 154° Southeast  Level Estimated
07:10PM 33.1783 -84.2522 160° South 421 484 23,100  Level Atlanta Center
07:11PM 33.1963 -84.1827 181° South  Level FlightAware Approximate
07:11PM 33.0636 -84.2050 161° South 428 493 24,200  Level Atlanta Center
07:12PM 33.1012 -84.1264 167° South  Level Estimated
07:12PM 32.9489 -84.1528 159° South 433 498 25,500  Level Atlanta Center
07:13PM 32.8319 -84.1106 163° South 433 498 27,300 1,560 Climbing Atlanta Center
07:14PM 32.7172 -84.0611 160° South 438 504 28,700 1,380 Climbing Atlanta Center
07:16PM 32.5003 -83.9689 160° South 465 535 31,400 1,440 Climbing Jacksonville Center
07:17PM 32.3878 -83.9233 161° South 447 514 33,000 1,200 Climbing Jacksonville Center
07:18PM 32.2756 -83.8778 161° South 440 506 33,800 780 Climbing Jacksonville Center
07:19PM 32.1589 -83.8325 162° South 440 506 34,600 540 Climbing Jacksonville Center
07:20PM 32.0422 -83.7847 161° South 445 512 34,900 180 Climbing Jacksonville Center
07:21PM 31.9217 -83.7344 161° South 451 519 35,000  Climbing Jacksonville Center
07:22PM 31.7819 -83.6772 161° South 479 551 35,000  Level Jacksonville Center
07:23PM 31.6656 -83.5981 150° Southeast 479 551 35,000  Level Jacksonville Center
07:24PM 31.5553 -83.5217 149° Southeast 501 577 35,000  Level Jacksonville Center
07:25PM 31.4367 -83.4381 149° Southeast 501 577 35,000  Level Jacksonville Center
07:26PM 31.3097 -83.3522 150° Southeast 501 577 35,000  Level Jacksonville Center
07:27PM 31.1908 -83.2714 150° Southeast 496 571 35,000  Level Jacksonville Center
07:28PM 31.0742 -83.1908 149° Southeast 490 564 35,000 -780 Level Jacksonville Center
07:29PM 30.9553 -83.1131 151° Southeast 490 564 33,500 -4,020 Descending Jacksonville Center
07:30PM 30.8364 -83.0281 148° Southeast 490 564 27,000 -3,300 Descending Jacksonville Center
07:31PM 30.7153 -82.9481 150° Southeast 495 570 26,900  Descending Jacksonville Center
07:32PM 30.6069 -82.8806 152° Southeast 495 570 27,000 -300 Climbing Jacksonville Center
07:33PM 30.4794 -82.7914 149° Southeast 495 570 26,300 -900 Descending Jacksonville Center
07:34PM 30.3583 -82.7097 150° Southeast 495 570 25,200 -600 Descending Jacksonville Center
07:35PM 30.2475 -82.6378 151° Southeast 500 575 25,200 -120 Level Jacksonville Center
07:36PM 30.1178 -82.5708 156° South 500 575 25,000 -120 Descending Jacksonville Center
07:37PM 29.9819 -82.4992 155° Southeast 500 575 25,000  Level Jacksonville Center
07:38PM 29.8564 -82.4353 156° South 500 575 25,000 -720 Level Jacksonville Center
07:39PM 29.7289 -82.3689 156° South 500 575 23,600 -1,620 Descending Jacksonville Center
07:40PM 29.6011 -82.3025 156° South 500 575 21,800 -1,860 Descending Jacksonville Center
07:41PM 29.4778 -82.2389 156° South 500 575 19,900 -1,920 Descending Jacksonville Center
07:42PM 29.3583 -82.1753 155° Southeast 489 563 18,000 -2,220 Descending Jacksonville Center
07:43PM 29.2433 -82.1144 155° Southeast 471 542 15,500 -2,340 Descending Jacksonville Center
07:44PM 29.1322 -82.0606 157° South 452 520 13,400 -1,980 Descending Jacksonville Center
07:45PM 29.0275 -82.0067 156° South 433 498 11,600 -1,200 Descending Jacksonville Center
07:46PM 28.9375 -81.9578 155° Southeast 388 447 11,100 -300 Descending Jacksonville Center
07:47PM 28.8494 -81.9183 159° South 358 412 11,100 -480 Level Jacksonville Center
07:48PM 28.7667 -81.8667 151° Southeast 314 361 10,100 -1,200 Descending Orlando TRACON
07:49PM 28.6833 -81.8333 161° South 291 335 8,500 -1,620 Descending Orlando TRACON
07:50PM 28.6000 -81.8000 161° South 284 327 6,700 -1,560 Descending Orlando TRACON
07:51PM 28.5333 -81.7667 156° South 281 323 5,400 -1,380 Descending Orlando TRACON
07:52PM 28.4667 -81.7333 156° South 277 319 4,100 -1,140 Descending Orlando TRACON
07:53PM 28.4167 -81.7000 150° Southeast 237 273 3,400 -900 Descending Orlando TRACON
07:54PM 28.3667 -81.6333 130° Southeast 223 257 2,300 -660 Descending Orlando TRACON
07:55PM 28.3333 -81.5833 127° Southeast 207 238 2,100 -360 Descending Orlando TRACON
07:56PM 28.3000 -81.5333 127° Southeast 181 208 1,600 -360 Descending Orlando TRACON
07:57PM 28.2667 -81.5000 139° Southeast 151 174 1,400 -600 Descending Orlando TRACON
07:58PM 28.2833 -81.4667 60° Northeast 104 120 400 -1,020 Descending Orlando TRACON
08:00PM 28.2898 -81.4371 350° North  Level Estimated
08:07PM 28.2898 -81.4371 350° North  Level Estimated
08:08PM 28.2898 -81.4371 350° North  Level Estimated
08:09PM 28.2898 -81.4371 350° North  Level Estimated
08:10PM 28.2898 -81.4371 350° North  Level Estimated